sensor_id;sensor_type;location;lat;lon;timestamp;P1;durP1;ratioP1;P2;durP2;ratioP2
14554;SDS011;7364;50.870;4.722;2022-08-14T00:00:27;4.57;;;3.80;;
14554;SDS011;7364;50.870;4.722;2022-08-14T00:02:54;6.17;;;3.80;;
14554;SDS011;7364;50.870;4.722;2022-08-14T00:05:23;7.87;;;3.40;;
14554;SDS011;7364;50.870;4.722;2022-08-14T00:07:51;5.07;;;3.47;;
14554;SDS011;7364;50.870;4.722;2022-08-14T00:10:19;5.30;;;3.70;;
14554;SDS011;7364;50.870;4.722;2022-08-14T00:12:48;6.73;;;3.87;;
14554;SDS011;7364;50.870;4.722;2022-08-14T00:15:19;8.77;;;3.90;;
14554;SDS011;7364;50.870;4.722;2022-08-14T00:17:48;4.10;;;3.70;;
14554;SDS011;7364;50.870;4.722;2022-08-14T00:20:17;5.07;;;3.80;;
14554;SDS011;7364;50.870;4.722;2022-08-14T00:22:48;6.33;;;4.13;;
14554;SDS011;7364;50.870;4.722;2022-08-14T00:25:15;4.70;;;3.67;;
14554;SDS011;7364;50.870;4.722;2022-08-14T00:27:42;5.00;;;4.17;;
14554;SDS011;7364;50.870;4.722;2022-08-14T00:30:10;4.97;;;3.90;;
14554;SDS011;7364;50.870;4.722;2022-08-14T00:32:39;6.97;;;3.83;;
14554;SDS011;7364;50.870;4.722;2022-08-14T00:35:08;6.93;;;3.90;;
14554;SDS011;7364;50.870;4.722;2022-08-14T00:37:37;8.63;;;4.23;;
14554;SDS011;7364;50.870;4.722;2022-08-14T00:40:07;4.60;;;3.90;;
14554;SDS011;7364;50.870;4.722;2022-08-14T00:42:36;5.60;;;4.23;;
14554;SDS011;7364;50.870;4.722;2022-08-14T00:45:04;6.40;;;4.10;;
14554;SDS011;7364;50.870;4.722;2022-08-14T00:47:33;4.53;;;4.13;;
14554;SDS011;7364;50.870;4.722;2022-08-14T00:50:01;3.93;;;3.50;;
14554;SDS011;7364;50.870;4.722;2022-08-14T00:52:29;6.80;;;4.17;;
14554;SDS011;7364;50.870;4.722;2022-08-14T00:54:57;6.57;;;4.03;;
14554;SDS011;7364;50.870;4.722;2022-08-14T00:57:27;8.23;;;4.40;;
14554;SDS011;7364;50.870;4.722;2022-08-14T00:59:55;5.30;;;4.80;;
14554;SDS011;7364;50.870;4.722;2022-08-14T01:02:25;9.27;;;5.23;;
14554;SDS011;7364;50.870;4.722;2022-08-14T01:04:57;5.10;;;4.43;;
14554;SDS011;7364;50.870;4.722;2022-08-14T01:07:25;5.83;;;4.27;;
14554;SDS011;7364;50.870;4.722;2022-08-14T01:09:54;5.73;;;3.93;;
14554;SDS011;7364;50.870;4.722;2022-08-14T01:12:29;4.40;;;4.00;;
14554;SDS011;7364;50.870;4.722;2022-08-14T01:14:58;5.97;;;4.37;;
14554;SDS011;7364;50.870;4.722;2022-08-14T01:17:28;4.30;;;3.90;;
14554;SDS011;7364;50.870;4.722;2022-08-14T01:20:10;6.23;;;4.50;;
14554;SDS011;7364;50.870;4.722;2022-08-14T01:22:57;8.23;;;4.83;;
14554;SDS011;7364;50.870;4.722;2022-08-14T01:25:24;5.57;;;4.10;;
14554;SDS011;7364;50.870;4.722;2022-08-14T01:27:51;5.47;;;3.90;;
14554;SDS011;7364;50.870;4.722;2022-08-14T01:30:19;5.03;;;4.00;;
14554;SDS011;7364;50.870;4.722;2022-08-14T01:32:51;4.47;;;4.03;;
14554;SDS011;7364;50.870;4.722;2022-08-14T01:35:18;8.13;;;4.53;;
14554;SDS011;7364;50.870;4.722;2022-08-14T01:37:46;4.57;;;4.07;;
14554;SDS011;7364;50.870;4.722;2022-08-14T01:40:16;5.40;;;4.40;;
14554;SDS011;7364;50.870;4.722;2022-08-14T01:42:44;5.97;;;4.50;;
14554;SDS011;7364;50.870;4.722;2022-08-14T01:45:12;7.23;;;4.67;;
14554;SDS011;7364;50.870;4.722;2022-08-14T01:47:40;8.57;;;4.47;;
14554;SDS011;7364;50.870;4.722;2022-08-14T01:50:07;6.00;;;4.23;;
14554;SDS011;7364;50.870;4.722;2022-08-14T01:52:36;4.37;;;3.97;;
14554;SDS011;7364;50.870;4.722;2022-08-14T01:55:04;9.30;;;4.40;;
14554;SDS011;7364;50.870;4.722;2022-08-14T01:57:35;8.43;;;4.33;;
14554;SDS011;7364;50.870;4.722;2022-08-14T02:00:03;5.30;;;4.80;;
14554;SDS011;7364;50.870;4.722;2022-08-14T02:02:32;4.53;;;4.03;;
14554;SDS011;7364;50.870;4.722;2022-08-14T02:04:59;8.23;;;4.43;;
14554;SDS011;7364;50.870;4.722;2022-08-14T02:07:27;5.97;;;4.30;;
14554;SDS011;7364;50.870;4.722;2022-08-14T02:09:56;5.83;;;4.20;;
14554;SDS011;7364;50.870;4.722;2022-08-14T02:12:24;8.67;;;4.43;;
14554;SDS011;7364;50.870;4.722;2022-08-14T02:14:52;5.03;;;4.53;;
14554;SDS011;7364;50.870;4.722;2022-08-14T02:17:19;7.63;;;4.27;;
14554;SDS011;7364;50.870;4.722;2022-08-14T02:19:48;10.37;;;5.07;;
14554;SDS011;7364;50.870;4.722;2022-08-14T02:22:15;4.80;;;4.30;;
14554;SDS011;7364;50.870;4.722;2022-08-14T02:24:43;9.00;;;4.70;;
14554;SDS011;7364;50.870;4.722;2022-08-14T02:27:11;7.27;;;4.17;;
14554;SDS011;7364;50.870;4.722;2022-08-14T02:29:38;6.10;;;4.87;;
14554;SDS011;7364;50.870;4.722;2022-08-14T02:32:07;6.63;;;4.77;;
14554;SDS011;7364;50.870;4.722;2022-08-14T02:34:36;5.63;;;4.50;;
14554;SDS011;7364;50.870;4.722;2022-08-14T02:37:04;8.27;;;4.47;;
14554;SDS011;7364;50.870;4.722;2022-08-14T02:39:34;5.00;;;4.50;;
14554;SDS011;7364;50.870;4.722;2022-08-14T02:42:04;4.73;;;4.30;;
14554;SDS011;7364;50.870;4.722;2022-08-14T02:44:33;6.03;;;4.80;;
14554;SDS011;7364;50.870;4.722;2022-08-14T02:47:03;6.90;;;4.90;;
14554;SDS011;7364;50.870;4.722;2022-08-14T02:49:32;5.83;;;4.67;;
14554;SDS011;7364;50.870;4.722;2022-08-14T02:51:59;5.47;;;4.97;;
14554;SDS011;7364;50.870;4.722;2022-08-14T02:54:27;6.10;;;4.70;;
14554;SDS011;7364;50.870;4.722;2022-08-14T02:56:56;5.53;;;5.03;;
14554;SDS011;7364;50.870;4.722;2022-08-14T02:59:24;6.67;;;5.20;;
14554;SDS011;7364;50.870;4.722;2022-08-14T03:01:53;6.47;;;5.23;;
14554;SDS011;7364;50.870;4.722;2022-08-14T03:04:21;6.60;;;5.17;;
14554;SDS011;7364;50.870;4.722;2022-08-14T03:06:52;5.73;;;5.13;;
14554;SDS011;7364;50.870;4.722;2022-08-14T03:09:19;8.13;;;5.80;;
14554;SDS011;7364;50.870;4.722;2022-08-14T03:11:46;6.73;;;5.30;;
14554;SDS011;7364;50.870;4.722;2022-08-14T03:14:13;7.73;;;4.87;;
14554;SDS011;7364;50.870;4.722;2022-08-14T03:16:41;6.73;;;5.30;;
14554;SDS011;7364;50.870;4.722;2022-08-14T03:19:09;8.87;;;4.80;;
14554;SDS011;7364;50.870;4.722;2022-08-14T03:21:38;5.57;;;4.93;;
14554;SDS011;7364;50.870;4.722;2022-08-14T03:24:07;6.10;;;5.33;;
14554;SDS011;7364;50.870;4.722;2022-08-14T03:26:37;6.23;;;5.50;;
14554;SDS011;7364;50.870;4.722;2022-08-14T03:29:08;5.97;;;5.37;;
14554;SDS011;7364;50.870;4.722;2022-08-14T03:31:37;6.37;;;5.07;;
14554;SDS011;7364;50.870;4.722;2022-08-14T03:34:06;5.30;;;4.80;;
14554;SDS011;7364;50.870;4.722;2022-08-14T03:36:34;5.57;;;4.57;;
14554;SDS011;7364;50.870;4.722;2022-08-14T03:39:04;7.13;;;5.60;;
14554;SDS011;7364;50.870;4.722;2022-08-14T03:41:34;6.80;;;5.20;;
14554;SDS011;7364;50.870;4.722;2022-08-14T03:44:02;5.93;;;5.30;;
14554;SDS011;7364;50.870;4.722;2022-08-14T03:46:32;6.17;;;5.27;;
14554;SDS011;7364;50.870;4.722;2022-08-14T03:49:00;5.63;;;5.13;;
14554;SDS011;7364;50.870;4.722;2022-08-14T03:51:29;6.60;;;5.10;;
14554;SDS011;7364;50.870;4.722;2022-08-14T03:53:58;6.00;;;5.37;;
14554;SDS011;7364;50.870;4.722;2022-08-14T03:56:28;9.03;;;6.37;;
14554;SDS011;7364;50.870;4.722;2022-08-14T03:58:56;7.37;;;5.67;;
14554;SDS011;7364;50.870;4.722;2022-08-14T04:01:27;7.37;;;5.73;;
14554;SDS011;7364;50.870;4.722;2022-08-14T04:03:54;6.13;;;5.53;;
14554;SDS011;7364;50.870;4.722;2022-08-14T04:06:30;6.33;;;5.70;;
14554;SDS011;7364;50.870;4.722;2022-08-14T04:08:57;6.60;;;6.00;;
14554;SDS011;7364;50.870;4.722;2022-08-14T04:11:24;9.83;;;5.97;;
14554;SDS011;7364;50.870;4.722;2022-08-14T04:13:57;6.77;;;5.10;;
14554;SDS011;7364;50.870;4.722;2022-08-14T04:16:25;7.93;;;5.90;;
14554;SDS011;7364;50.870;4.722;2022-08-14T04:18:53;6.00;;;5.40;;
14554;SDS011;7364;50.870;4.722;2022-08-14T04:21:21;9.00;;;5.73;;
14554;SDS011;7364;50.870;4.722;2022-08-14T04:23:52;7.00;;;5.70;;
14554;SDS011;7364;50.870;4.722;2022-08-14T04:26:22;8.30;;;5.53;;
14554;SDS011;7364;50.870;4.722;2022-08-14T04:28:52;6.23;;;5.67;;
14554;SDS011;7364;50.870;4.722;2022-08-14T04:31:23;7.20;;;5.80;;
14554;SDS011;7364;50.870;4.722;2022-08-14T04:33:50;6.53;;;5.77;;
14554;SDS011;7364;50.870;4.722;2022-08-14T04:36:20;7.27;;;5.83;;
14554;SDS011;7364;50.870;4.722;2022-08-14T04:38:48;6.13;;;5.30;;
14554;SDS011;7364;50.870;4.722;2022-08-14T04:41:32;6.37;;;5.87;;
14554;SDS011;7364;50.870;4.722;2022-08-14T04:44:19;6.60;;;6.00;;
14554;SDS011;7364;50.870;4.722;2022-08-14T04:46:47;7.57;;;6.77;;
14554;SDS011;7364;50.870;4.722;2022-08-14T04:49:28;10.70;;;6.60;;
14554;SDS011;7364;50.870;4.722;2022-08-14T04:51:58;8.80;;;6.03;;
14554;SDS011;7364;50.870;4.722;2022-08-14T04:54:29;7.20;;;6.37;;
14554;SDS011;7364;50.870;4.722;2022-08-14T04:56:56;9.67;;;6.93;;
14554;SDS011;7364;50.870;4.722;2022-08-14T04:59:25;8.20;;;7.40;;
14554;SDS011;7364;50.870;4.722;2022-08-14T05:01:52;12.27;;;7.27;;
14554;SDS011;7364;50.870;4.722;2022-08-14T05:04:20;8.07;;;6.97;;
14554;SDS011;7364;50.870;4.722;2022-08-14T05:06:49;8.47;;;6.83;;
14554;SDS011;7364;50.870;4.722;2022-08-14T05:09:17;8.17;;;7.00;;
14554;SDS011;7364;50.870;4.722;2022-08-14T05:11:44;7.13;;;6.43;;
14554;SDS011;7364;50.870;4.722;2022-08-14T05:14:11;8.63;;;7.03;;
14554;SDS011;7364;50.870;4.722;2022-08-14T05:16:40;7.07;;;6.37;;
14554;SDS011;7364;50.870;4.722;2022-08-14T05:19:08;8.87;;;6.90;;
14554;SDS011;7364;50.870;4.722;2022-08-14T05:21:38;8.43;;;7.03;;
14554;SDS011;7364;50.870;4.722;2022-08-14T05:24:06;7.17;;;6.47;;
14554;SDS011;7364;50.870;4.722;2022-08-14T05:26:35;10.43;;;6.60;;
14554;SDS011;7364;50.870;4.722;2022-08-14T05:29:09;8.20;;;6.70;;
14554;SDS011;7364;50.870;4.722;2022-08-14T05:31:36;10.00;;;6.77;;
14554;SDS011;7364;50.870;4.722;2022-08-14T05:34:07;10.33;;;7.07;;
14554;SDS011;7364;50.870;4.722;2022-08-14T05:36:34;8.43;;;7.53;;
14554;SDS011;7364;50.870;4.722;2022-08-14T05:39:03;8.27;;;7.47;;
14554;SDS011;7364;50.870;4.722;2022-08-14T05:41:30;7.43;;;6.73;;
14554;SDS011;7364;50.870;4.722;2022-08-14T05:43:58;8.80;;;6.97;;
14554;SDS011;7364;50.870;4.722;2022-08-14T05:46:26;7.27;;;6.57;;
14554;SDS011;7364;50.870;4.722;2022-08-14T05:48:54;7.97;;;6.80;;
14554;SDS011;7364;50.870;4.722;2022-08-14T05:51:24;7.20;;;6.47;;
14554;SDS011;7364;50.870;4.722;2022-08-14T05:53:52;7.80;;;7.10;;
14554;SDS011;7364;50.870;4.722;2022-08-14T05:56:19;7.43;;;6.47;;
14554;SDS011;7364;50.870;4.722;2022-08-14T05:58:49;9.27;;;6.83;;
14554;SDS011;7364;50.870;4.722;2022-08-14T06:01:16;7.70;;;6.90;;
14554;SDS011;7364;50.870;4.722;2022-08-14T06:03:43;9.20;;;6.47;;
14554;SDS011;7364;50.870;4.722;2022-08-14T06:06:11;6.97;;;6.40;;
14554;SDS011;7364;50.870;4.722;2022-08-14T06:08:39;12.83;;;6.00;;
14554;SDS011;7364;50.870;4.722;2022-08-14T06:11:07;6.57;;;5.97;;
14554;SDS011;7364;50.870;4.722;2022-08-14T06:13:36;9.43;;;5.73;;
14554;SDS011;7364;50.870;4.722;2022-08-14T06:16:04;7.57;;;6.30;;
14554;SDS011;7364;50.870;4.722;2022-08-14T06:18:32;7.10;;;5.57;;
14554;SDS011;7364;50.870;4.722;2022-08-14T06:21:00;7.27;;;5.80;;
14554;SDS011;7364;50.870;4.722;2022-08-14T06:23:27;6.10;;;5.50;;
14554;SDS011;7364;50.870;4.722;2022-08-14T06:25:56;6.10;;;5.30;;
14554;SDS011;7364;50.870;4.722;2022-08-14T06:28:24;5.87;;;5.27;;
14554;SDS011;7364;50.870;4.722;2022-08-14T06:30:52;7.60;;;5.53;;
14554;SDS011;7364;50.870;4.722;2022-08-14T06:33:20;6.90;;;5.30;;
14554;SDS011;7364;50.870;4.722;2022-08-14T06:35:48;7.83;;;5.73;;
14554;SDS011;7364;50.870;4.722;2022-08-14T06:38:16;7.13;;;5.70;;
14554;SDS011;7364;50.870;4.722;2022-08-14T06:40:45;7.40;;;5.47;;
14554;SDS011;7364;50.870;4.722;2022-08-14T06:43:15;7.73;;;5.50;;
14554;SDS011;7364;50.870;4.722;2022-08-14T06:45:44;6.67;;;5.23;;
14554;SDS011;7364;50.870;4.722;2022-08-14T06:48:12;6.50;;;4.97;;
14554;SDS011;7364;50.870;4.722;2022-08-14T06:50:41;6.20;;;5.30;;
14554;SDS011;7364;50.870;4.722;2022-08-14T06:53:08;6.50;;;5.33;;
14554;SDS011;7364;50.870;4.722;2022-08-14T06:55:38;6.13;;;5.53;;
14554;SDS011;7364;50.870;4.722;2022-08-14T06:58:10;6.17;;;5.20;;
14554;SDS011;7364;50.870;4.722;2022-08-14T07:00:40;7.33;;;5.73;;
14554;SDS011;7364;50.870;4.722;2022-08-14T07:03:28;6.60;;;5.60;;
14554;SDS011;7364;50.870;4.722;2022-08-14T07:06:13;5.90;;;5.37;;
14554;SDS011;7364;50.870;4.722;2022-08-14T07:08:41;5.80;;;5.23;;
14554;SDS011;7364;50.870;4.722;2022-08-14T07:11:09;7.20;;;5.30;;
14554;SDS011;7364;50.870;4.722;2022-08-14T07:13:37;6.50;;;5.30;;
14554;SDS011;7364;50.870;4.722;2022-08-14T07:16:06;6.57;;;5.40;;
14554;SDS011;7364;50.870;4.722;2022-08-14T07:18:37;6.07;;;4.90;;
14554;SDS011;7364;50.870;4.722;2022-08-14T07:21:06;5.93;;;5.03;;
14554;SDS011;7364;50.870;4.722;2022-08-14T07:23:33;5.43;;;4.70;;
14554;SDS011;7364;50.870;4.722;2022-08-14T07:26:02;7.77;;;5.60;;
14554;SDS011;7364;50.870;4.722;2022-08-14T07:28:31;6.53;;;5.30;;
14554;SDS011;7364;50.870;4.722;2022-08-14T07:31:00;5.33;;;4.83;;
14554;SDS011;7364;50.870;4.722;2022-08-14T07:33:32;6.07;;;5.27;;
14554;SDS011;7364;50.870;4.722;2022-08-14T07:36:01;7.33;;;5.00;;
14554;SDS011;7364;50.870;4.722;2022-08-14T07:38:29;5.63;;;4.73;;
14554;SDS011;7364;50.870;4.722;2022-08-14T07:40:57;5.27;;;4.77;;
14554;SDS011;7364;50.870;4.722;2022-08-14T07:43:24;7.37;;;4.90;;
14554;SDS011;7364;50.870;4.722;2022-08-14T07:45:52;6.83;;;4.63;;
14554;SDS011;7364;50.870;4.722;2022-08-14T07:48:19;6.10;;;5.23;;
14554;SDS011;7364;50.870;4.722;2022-08-14T07:50:48;6.33;;;4.90;;
14554;SDS011;7364;50.870;4.722;2022-08-14T07:53:16;6.97;;;4.90;;
14554;SDS011;7364;50.870;4.722;2022-08-14T07:55:44;6.63;;;5.37;;
14554;SDS011;7364;50.870;4.722;2022-08-14T07:58:11;6.97;;;4.60;;
14554;SDS011;7364;50.870;4.722;2022-08-14T08:00:39;10.03;;;5.07;;
14554;SDS011;7364;50.870;4.722;2022-08-14T08:03:08;5.60;;;4.87;;
14554;SDS011;7364;50.870;4.722;2022-08-14T08:05:35;10.67;;;4.63;;
14554;SDS011;7364;50.870;4.722;2022-08-14T08:08:06;5.53;;;4.87;;
14554;SDS011;7364;50.870;4.722;2022-08-14T08:10:34;5.43;;;4.60;;
14554;SDS011;7364;50.870;4.722;2022-08-14T08:13:07;7.13;;;4.20;;
14554;SDS011;7364;50.870;4.722;2022-08-14T08:15:37;5.87;;;4.67;;
14554;SDS011;7364;50.870;4.722;2022-08-14T08:18:06;5.43;;;4.10;;
14554;SDS011;7364;50.870;4.722;2022-08-14T08:20:36;5.07;;;4.57;;
14554;SDS011;7364;50.870;4.722;2022-08-14T08:23:15;4.67;;;4.20;;
14554;SDS011;7364;50.870;4.722;2022-08-14T08:25:45;5.23;;;4.73;;
14554;SDS011;7364;50.870;4.722;2022-08-14T08:28:14;4.60;;;4.20;;
14554;SDS011;7364;50.870;4.722;2022-08-14T08:30:46;4.87;;;4.00;;
14554;SDS011;7364;50.870;4.722;2022-08-14T08:33:15;6.57;;;4.73;;
14554;SDS011;7364;50.870;4.722;2022-08-14T08:35:42;4.53;;;4.13;;
14554;SDS011;7364;50.870;4.722;2022-08-14T08:38:11;4.50;;;4.10;;
14554;SDS011;7364;50.870;4.722;2022-08-14T08:40:45;4.93;;;4.20;;
14554;SDS011;7364;50.870;4.722;2022-08-14T08:43:18;5.97;;;4.10;;
14554;SDS011;7364;50.870;4.722;2022-08-14T08:45:52;4.37;;;3.80;;
14554;SDS011;7364;50.870;4.722;2022-08-14T08:48:21;4.90;;;4.13;;
14554;SDS011;7364;50.870;4.722;2022-08-14T08:50:53;4.93;;;4.30;;
14554;SDS011;7364;50.870;4.722;2022-08-14T08:53:22;4.97;;;3.87;;
14554;SDS011;7364;50.870;4.722;2022-08-14T08:55:57;9.10;;;4.27;;
14554;SDS011;7364;50.870;4.722;2022-08-14T08:58:24;4.97;;;4.40;;
14554;SDS011;7364;50.870;4.722;2022-08-14T09:00:53;4.97;;;4.47;;
14554;SDS011;7364;50.870;4.722;2022-08-14T09:03:23;4.83;;;4.33;;
14554;SDS011;7364;50.870;4.722;2022-08-14T09:05:53;3.97;;;3.57;;
14554;SDS011;7364;50.870;4.722;2022-08-14T09:08:23;7.73;;;4.33;;
14554;SDS011;7364;50.870;4.722;2022-08-14T09:10:51;6.37;;;4.10;;
14554;SDS011;7364;50.870;4.722;2022-08-14T09:13:21;4.67;;;4.17;;
14554;SDS011;7364;50.870;4.722;2022-08-14T09:15:51;4.70;;;3.90;;
14554;SDS011;7364;50.870;4.722;2022-08-14T09:18:20;4.97;;;4.33;;
14554;SDS011;7364;50.870;4.722;2022-08-14T09:20:48;4.10;;;3.70;;
14554;SDS011;7364;50.870;4.722;2022-08-14T09:23:17;5.23;;;4.43;;
14554;SDS011;7364;50.870;4.722;2022-08-14T09:25:45;6.93;;;4.13;;
14554;SDS011;7364;50.870;4.722;2022-08-14T09:28:14;4.33;;;3.93;;
14554;SDS011;7364;50.870;4.722;2022-08-14T09:30:44;4.83;;;4.33;;
14554;SDS011;7364;50.870;4.722;2022-08-14T09:36:26;5.37;;;3.70;;
14554;SDS011;7364;50.870;4.722;2022-08-14T09:39:12;3.80;;;3.20;;
14554;SDS011;7364;50.870;4.722;2022-08-14T09:41:57;5.97;;;3.63;;
14554;SDS011;7364;50.870;4.722;2022-08-14T09:44:40;4.03;;;3.23;;
14554;SDS011;7364;50.870;4.722;2022-08-14T09:47:15;3.40;;;3.10;;
14554;SDS011;7364;50.870;4.722;2022-08-14T09:49:42;3.30;;;3.00;;
14554;SDS011;7364;50.870;4.722;2022-08-14T09:52:10;4.87;;;3.23;;
14554;SDS011;7364;50.870;4.722;2022-08-14T09:54:39;4.47;;;3.20;;
14554;SDS011;7364;50.870;4.722;2022-08-14T09:57:08;6.83;;;3.47;;
14554;SDS011;7364;50.870;4.722;2022-08-14T09:59:42;4.03;;;3.17;;
14554;SDS011;7364;50.870;4.722;2022-08-14T10:02:20;6.10;;;2.93;;
14554;SDS011;7364;50.870;4.722;2022-08-14T10:04:59;3.57;;;2.90;;
14554;SDS011;7364;50.870;4.722;2022-08-14T10:07:32;4.23;;;2.77;;
14554;SDS011;7364;50.870;4.722;2022-08-14T10:10:01;8.27;;;3.30;;
14554;SDS011;7364;50.870;4.722;2022-08-14T10:12:43;6.37;;;3.07;;
14554;SDS011;7364;50.870;4.722;2022-08-14T10:15:13;4.93;;;2.60;;
14554;SDS011;7364;50.870;4.722;2022-08-14T10:17:46;2.90;;;2.53;;
14554;SDS011;7364;50.870;4.722;2022-08-14T10:20:15;3.40;;;3.10;;
14554;SDS011;7364;50.870;4.722;2022-08-14T10:22:46;3.75;;;2.60;;
14554;SDS011;7364;50.870;4.722;2022-08-14T10:25:15;3.87;;;3.00;;
14554;SDS011;7364;50.870;4.722;2022-08-14T10:27:43;2.77;;;2.20;;
14554;SDS011;7364;50.870;4.722;2022-08-14T10:30:15;2.57;;;1.93;;
14554;SDS011;7364;50.870;4.722;2022-08-14T10:32:47;3.88;;;2.33;;
14554;SDS011;7364;50.870;4.722;2022-08-14T10:35:17;2.78;;;2.33;;
14554;SDS011;7364;50.870;4.722;2022-08-14T10:37:48;3.30;;;2.33;;
14554;SDS011;7364;50.870;4.722;2022-08-14T10:40:24;3.00;;;2.40;;
14554;SDS011;7364;50.870;4.722;2022-08-14T10:42:54;2.50;;;2.00;;
14554;SDS011;7364;50.870;4.722;2022-08-14T10:45:22;5.70;;;2.28;;
14554;SDS011;7364;50.870;4.722;2022-08-14T10:47:52;2.97;;;2.40;;
14554;SDS011;7364;50.870;4.722;2022-08-14T10:50:27;2.50;;;2.05;;
14554;SDS011;7364;50.870;4.722;2022-08-14T10:52:56;2.67;;;2.20;;
14554;SDS011;7364;50.870;4.722;2022-08-14T10:55:30;2.15;;;1.88;;
14554;SDS011;7364;50.870;4.722;2022-08-14T10:58:04;2.90;;;1.90;;
14554;SDS011;7364;50.870;4.722;2022-08-14T11:00:36;2.92;;;2.20;;
14554;SDS011;7364;50.870;4.722;2022-08-14T11:03:06;2.25;;;1.90;;
14554;SDS011;7364;50.870;4.722;2022-08-14T11:05:38;5.53;;;2.08;;
14554;SDS011;7364;50.870;4.722;2022-08-14T11:08:07;2.20;;;1.90;;
14554;SDS011;7364;50.870;4.722;2022-08-14T11:10:39;2.53;;;2.20;;
14554;SDS011;7364;50.870;4.722;2022-08-14T11:13:13;4.65;;;2.17;;
14554;SDS011;7364;50.870;4.722;2022-08-14T11:15:43;3.53;;;2.10;;
14554;SDS011;7364;50.870;4.722;2022-08-14T11:18:14;3.95;;;2.00;;
14554;SDS011;7364;50.870;4.722;2022-08-14T11:20:43;7.65;;;2.28;;
14554;SDS011;7364;50.870;4.722;2022-08-14T11:23:15;3.05;;;2.30;;
14554;SDS011;7364;50.870;4.722;2022-08-14T11:25:46;3.05;;;2.42;;
14554;SDS011;7364;50.870;4.722;2022-08-14T11:28:14;4.30;;;2.35;;
14554;SDS011;7364;50.870;4.722;2022-08-14T11:30:42;2.88;;;2.00;;
14554;SDS011;7364;50.870;4.722;2022-08-14T11:33:09;5.07;;;1.98;;
14554;SDS011;7364;50.870;4.722;2022-08-14T11:35:38;4.03;;;2.00;;
14554;SDS011;7364;50.870;4.722;2022-08-14T11:38:07;2.35;;;2.10;;
14554;SDS011;7364;50.870;4.722;2022-08-14T11:40:36;2.75;;;1.95;;
14554;SDS011;7364;50.870;4.722;2022-08-14T11:43:05;4.50;;;1.88;;
14554;SDS011;7364;50.870;4.722;2022-08-14T11:45:34;1.95;;;1.80;;
14554;SDS011;7364;50.870;4.722;2022-08-14T11:48:13;4.40;;;2.28;;
14554;SDS011;7364;50.870;4.722;2022-08-14T11:50:43;2.83;;;2.15;;
14554;SDS011;7364;50.870;4.722;2022-08-14T11:53:18;2.65;;;1.48;;
14554;SDS011;7364;50.870;4.722;2022-08-14T11:55:47;2.60;;;1.67;;
14554;SDS011;7364;50.870;4.722;2022-08-14T11:58:24;3.40;;;1.95;;
14554;SDS011;7364;50.870;4.722;2022-08-14T12:00:54;4.15;;;2.35;;
14554;SDS011;7364;50.870;4.722;2022-08-14T12:03:33;2.55;;;1.95;;
14554;SDS011;7364;50.870;4.722;2022-08-14T12:06:06;2.67;;;1.90;;
14554;SDS011;7364;50.870;4.722;2022-08-14T12:08:35;3.58;;;1.80;;
14554;SDS011;7364;50.870;4.722;2022-08-14T12:11:04;5.13;;;1.90;;
14554;SDS011;7364;50.870;4.722;2022-08-14T12:13:33;4.75;;;2.00;;
14554;SDS011;7364;50.870;4.722;2022-08-14T12:16:01;1.95;;;1.58;;
14554;SDS011;7364;50.870;4.722;2022-08-14T12:18:31;2.13;;;1.75;;
14554;SDS011;7364;50.870;4.722;2022-08-14T12:21:15;3.33;;;2.50;;
14554;SDS011;7364;50.870;4.722;2022-08-14T12:23:44;3.28;;;2.00;;
14554;SDS011;7364;50.870;4.722;2022-08-14T12:26:13;4.38;;;2.40;;
14554;SDS011;7364;50.870;4.722;2022-08-14T12:28:47;2.15;;;1.63;;
14554;SDS011;7364;50.870;4.722;2022-08-14T12:31:16;2.47;;;1.98;;
14554;SDS011;7364;50.870;4.722;2022-08-14T12:33:54;2.00;;;1.80;;
14554;SDS011;7364;50.870;4.722;2022-08-14T12:36:25;8.40;;;2.03;;
14554;SDS011;7364;50.870;4.722;2022-08-14T12:38:54;2.38;;;1.77;;
14554;SDS011;7364;50.870;4.722;2022-08-14T12:41:23;2.92;;;1.98;;
14554;SDS011;7364;50.870;4.722;2022-08-14T12:43:52;1.95;;;1.55;;
14554;SDS011;7364;50.870;4.722;2022-08-14T12:46:24;3.63;;;2.15;;
14554;SDS011;7364;50.870;4.722;2022-08-14T12:48:55;2.72;;;2.08;;
14554;SDS011;7364;50.870;4.722;2022-08-14T12:51:26;2.28;;;2.08;;
14554;SDS011;7364;50.870;4.722;2022-08-14T12:53:54;2.15;;;1.95;;
14554;SDS011;7364;50.870;4.722;2022-08-14T12:56:22;2.80;;;2.10;;
14554;SDS011;7364;50.870;4.722;2022-08-14T12:58:51;2.47;;;1.88;;
14554;SDS011;7364;50.870;4.722;2022-08-14T13:01:20;3.70;;;2.10;;
14554;SDS011;7364;50.870;4.722;2022-08-14T13:03:49;2.10;;;1.90;;
14554;SDS011;7364;50.870;4.722;2022-08-14T13:06:18;2.28;;;2.08;;
14554;SDS011;7364;50.870;4.722;2022-08-14T13:08:50;7.53;;;2.28;;
14554;SDS011;7364;50.870;4.722;2022-08-14T13:11:18;2.60;;;2.00;;
14554;SDS011;7364;50.870;4.722;2022-08-14T13:13:45;2.22;;;1.90;;
14554;SDS011;7364;50.870;4.722;2022-08-14T13:16:13;2.53;;;2.08;;
14554;SDS011;7364;50.870;4.722;2022-08-14T13:18:41;2.47;;;2.10;;
14554;SDS011;7364;50.870;4.722;2022-08-14T13:21:11;2.33;;;1.98;;
14554;SDS011;7364;50.870;4.722;2022-08-14T13:23:39;2.22;;;2.03;;
14554;SDS011;7364;50.870;4.722;2022-08-14T13:26:12;2.28;;;2.08;;
14554;SDS011;7364;50.870;4.722;2022-08-14T13:28:41;3.35;;;2.10;;
14554;SDS011;7364;50.870;4.722;2022-08-14T13:31:08;2.65;;;1.92;;
14554;SDS011;7364;50.870;4.722;2022-08-14T13:33:41;3.85;;;2.15;;
14554;SDS011;7364;50.870;4.722;2022-08-14T13:36:09;3.47;;;2.45;;
14554;SDS011;7364;50.870;4.722;2022-08-14T13:38:36;2.67;;;1.88;;
14554;SDS011;7364;50.870;4.722;2022-08-14T13:41:07;3.38;;;2.13;;
14554;SDS011;7364;50.870;4.722;2022-08-14T13:43:37;2.40;;;2.03;;
14554;SDS011;7364;50.870;4.722;2022-08-14T13:46:05;1.95;;;1.77;;
14554;SDS011;7364;50.870;4.722;2022-08-14T13:48:32;2.03;;;1.88;;
14554;SDS011;7364;50.870;4.722;2022-08-14T13:51:02;3.97;;;2.33;;
14554;SDS011;7364;50.870;4.722;2022-08-14T13:53:31;3.10;;;2.20;;
14554;SDS011;7364;50.870;4.722;2022-08-14T13:56:09;2.25;;;2.05;;
14554;SDS011;7364;50.870;4.722;2022-08-14T13:58:39;3.08;;;1.98;;
14554;SDS011;7364;50.870;4.722;2022-08-14T14:01:09;3.95;;;2.00;;
14554;SDS011;7364;50.870;4.722;2022-08-14T14:03:37;3.65;;;2.30;;
14554;SDS011;7364;50.870;4.722;2022-08-14T14:06:11;2.65;;;2.30;;
14554;SDS011;7364;50.870;4.722;2022-08-14T14:08:41;2.63;;;2.17;;
14554;SDS011;7364;50.870;4.722;2022-08-14T14:11:13;2.17;;;1.92;;
14554;SDS011;7364;50.870;4.722;2022-08-14T14:13:43;7.25;;;2.38;;
14554;SDS011;7364;50.870;4.722;2022-08-14T14:16:11;3.40;;;2.17;;
14554;SDS011;7364;50.870;4.722;2022-08-14T14:18:41;2.20;;;2.00;;
14554;SDS011;7364;50.870;4.722;2022-08-14T14:21:13;4.60;;;2.58;;
14554;SDS011;7364;50.870;4.722;2022-08-14T14:23:43;3.53;;;2.38;;
14554;SDS011;7364;50.870;4.722;2022-08-14T14:26:11;2.50;;;2.30;;
14554;SDS011;7364;50.870;4.722;2022-08-14T14:28:40;2.25;;;1.98;;
14554;SDS011;7364;50.870;4.722;2022-08-14T14:31:14;3.15;;;1.88;;
14554;SDS011;7364;50.870;4.722;2022-08-14T14:33:46;4.03;;;2.38;;
14554;SDS011;7364;50.870;4.722;2022-08-14T14:36:17;2.60;;;2.40;;
14554;SDS011;7364;50.870;4.722;2022-08-14T14:38:51;5.85;;;2.30;;
14554;SDS011;7364;50.870;4.722;2022-08-14T14:41:21;5.25;;;2.30;;
14554;SDS011;7364;50.870;4.722;2022-08-14T14:43:51;5.53;;;2.50;;
14554;SDS011;7364;50.870;4.722;2022-08-14T14:46:19;3.08;;;2.72;;
14554;SDS011;7364;50.870;4.722;2022-08-14T14:48:48;4.03;;;2.47;;
14554;SDS011;7364;50.870;4.722;2022-08-14T14:51:16;4.32;;;2.42;;
14554;SDS011;7364;50.870;4.722;2022-08-14T14:53:44;2.80;;;2.15;;
14554;SDS011;7364;50.870;4.722;2022-08-14T14:56:12;2.80;;;1.98;;
14554;SDS011;7364;50.870;4.722;2022-08-14T14:58:40;3.75;;;2.30;;
14554;SDS011;7364;50.870;4.722;2022-08-14T15:01:09;2.75;;;2.15;;
14554;SDS011;7364;50.870;4.722;2022-08-14T15:03:39;3.35;;;2.22;;
14554;SDS011;7364;50.870;4.722;2022-08-14T15:06:07;4.60;;;2.70;;
14554;SDS011;7364;50.870;4.722;2022-08-14T15:08:35;4.20;;;2.47;;
14554;SDS011;7364;50.870;4.722;2022-08-14T15:11:02;2.75;;;2.35;;
14554;SDS011;7364;50.870;4.722;2022-08-14T15:13:30;2.33;;;2.10;;
14554;SDS011;7364;50.870;4.722;2022-08-14T15:15:57;2.05;;;1.83;;
14554;SDS011;7364;50.870;4.722;2022-08-14T15:18:26;4.22;;;2.50;;